sensor_id;sensor_type;location;lat;lon;timestamp;P1;durP1;ratioP1;P2;durP2;ratioP2
14118;SDS011;7138;49.246;9.100;2022-09-09T00:00:53;4.88;;;1.27;;
14118;SDS011;7138;49.246;9.100;2022-09-09T00:03:30;7.00;;;1.10;;
14118;SDS011;7138;49.246;9.100;2022-09-09T00:06:11;6.03;;;1.20;;
14118;SDS011;7138;49.246;9.100;2022-09-09T00:08:50;5.57;;;1.15;;
14118;SDS011;7138;49.246;9.100;2022-09-09T00:11:29;6.93;;;1.10;;
14118;SDS011;7138;49.246;9.100;2022-09-09T00:14:07;6.57;;;1.35;;
14118;SDS011;7138;49.246;9.100;2022-09-09T00:16:43;6.20;;;1.08;;
14118;SDS011;7138;49.246;9.100;2022-09-09T00:19:19;5.43;;;1.30;;
14118;SDS011;7138;49.246;9.100;2022-09-09T00:21:52;3.60;;;1.20;;
14118;SDS011;7138;49.246;9.100;2022-09-09T00:24:37;4.85;;;1.17;;
14118;SDS011;7138;49.246;9.100;2022-09-09T00:27:12;3.88;;;1.15;;
14118;SDS011;7138;49.246;9.100;2022-09-09T00:29:57;4.50;;;1.08;;
14118;SDS011;7138;49.246;9.100;2022-09-09T00:32:37;7.55;;;1.30;;
14118;SDS011;7138;49.246;9.100;2022-09-09T00:35:11;5.05;;;1.23;;
14118;SDS011;7138;49.246;9.100;2022-09-09T00:37:43;8.25;;;1.40;;
14118;SDS011;7138;49.246;9.100;2022-09-09T00:40:18;5.60;;;1.20;;
14118;SDS011;7138;49.246;9.100;2022-09-09T00:42:54;6.05;;;1.45;;
14118;SDS011;7138;49.246;9.100;2022-09-09T00:48:53;4.38;;;1.10;;
14118;SDS011;7138;49.246;9.100;2022-09-09T00:51:31;6.45;;;1.30;;
14118;SDS011;7138;49.246;9.100;2022-09-09T00:54:19;9.13;;;1.58;;
14118;SDS011;7138;49.246;9.100;2022-09-09T00:57:03;5.25;;;1.10;;
14118;SDS011;7138;49.246;9.100;2022-09-09T00:59:46;9.05;;;1.10;;
14118;SDS011;7138;49.246;9.100;2022-09-09T01:02:21;4.85;;;1.20;;
14118;SDS011;7138;49.246;9.100;2022-09-09T01:04:57;6.10;;;1.05;;
14118;SDS011;7138;49.246;9.100;2022-09-09T01:07:32;4.05;;;1.48;;
14118;SDS011;7138;49.246;9.100;2022-09-09T01:09:58;5.13;;;1.30;;
14118;SDS011;7138;49.246;9.100;2022-09-09T01:12:32;4.07;;;1.20;;
14118;SDS011;7138;49.246;9.100;2022-09-09T01:15:10;5.47;;;1.50;;
14118;SDS011;7138;49.246;9.100;2022-09-09T01:17:46;6.40;;;1.17;;
14118;SDS011;7138;49.246;9.100;2022-09-09T01:20:21;7.05;;;1.33;;
14118;SDS011;7138;49.246;9.100;2022-09-09T01:22:56;6.75;;;1.30;;
14118;SDS011;7138;49.246;9.100;2022-09-09T01:28:50;3.95;;;1.30;;
14118;SDS011;7138;49.246;9.100;2022-09-09T01:31:19;3.97;;;1.10;;
14118;SDS011;7138;49.246;9.100;2022-09-09T01:33:49;5.38;;;1.77;;
14118;SDS011;7138;49.246;9.100;2022-09-09T01:36:17;5.00;;;1.42;;
14118;SDS011;7138;49.246;9.100;2022-09-09T01:38:51;5.60;;;1.00;;
14118;SDS011;7138;49.246;9.100;2022-09-09T01:41:18;6.63;;;1.42;;
14118;SDS011;7138;49.246;9.100;2022-09-09T01:43:46;7.03;;;1.45;;
14118;SDS011;7138;49.246;9.100;2022-09-09T01:46:12;6.20;;;1.35;;
14118;SDS011;7138;49.246;9.100;2022-09-09T01:48:40;4.15;;;1.35;;
14118;SDS011;7138;49.246;9.100;2022-09-09T01:51:07;3.78;;;1.48;;
14118;SDS011;7138;49.246;9.100;2022-09-09T01:53:34;7.75;;;1.23;;
14118;SDS011;7138;49.246;9.100;2022-09-09T01:56:02;6.63;;;1.48;;
14118;SDS011;7138;49.246;9.100;2022-09-09T01:58:44;5.65;;;1.25;;
14118;SDS011;7138;49.246;9.100;2022-09-09T02:01:28;5.53;;;1.08;;
14118;SDS011;7138;49.246;9.100;2022-09-09T02:04:20;3.90;;;1.20;;
14118;SDS011;7138;49.246;9.100;2022-09-09T02:07:00;4.22;;;1.13;;
14118;SDS011;7138;49.246;9.100;2022-09-09T02:09:27;6.78;;;1.95;;
14118;SDS011;7138;49.246;9.100;2022-09-09T02:11:57;6.57;;;1.25;;
14118;SDS011;7138;49.246;9.100;2022-09-09T02:14:34;7.50;;;1.40;;
14118;SDS011;7138;49.246;9.100;2022-09-09T02:17:07;6.53;;;1.48;;
14118;SDS011;7138;49.246;9.100;2022-09-09T02:19:36;3.80;;;1.15;;
14118;SDS011;7138;49.246;9.100;2022-09-09T02:22:11;5.93;;;1.20;;
14118;SDS011;7138;49.246;9.100;2022-09-09T02:24:38;6.25;;;1.40;;
14118;SDS011;7138;49.246;9.100;2022-09-09T02:27:06;6.10;;;1.45;;
14118;SDS011;7138;49.246;9.100;2022-09-09T02:29:37;4.68;;;1.20;;
14118;SDS011;7138;49.246;9.100;2022-09-09T02:32:08;5.55;;;1.58;;
14118;SDS011;7138;49.246;9.100;2022-09-09T02:34:42;3.33;;;1.25;;
14118;SDS011;7138;49.246;9.100;2022-09-09T02:37:13;5.90;;;1.42;;
14118;SDS011;7138;49.246;9.100;2022-09-09T02:39:45;6.78;;;1.40;;
14118;SDS011;7138;49.246;9.100;2022-09-09T02:42:12;3.80;;;1.33;;
14118;SDS011;7138;49.246;9.100;2022-09-09T02:44:41;6.97;;;1.38;;
14118;SDS011;7138;49.246;9.100;2022-09-09T02:47:10;5.90;;;1.73;;
14118;SDS011;7138;49.246;9.100;2022-09-09T02:49:56;4.22;;;1.08;;
14118;SDS011;7138;49.246;9.100;2022-09-09T02:52:38;5.13;;;1.40;;
14118;SDS011;7138;49.246;9.100;2022-09-09T02:55:27;14.10;;;2.23;;
14118;SDS011;7138;49.246;9.100;2022-09-09T02:58:04;4.85;;;1.27;;
14118;SDS011;7138;49.246;9.100;2022-09-09T03:00:37;6.32;;;1.30;;
14118;SDS011;7138;49.246;9.100;2022-09-09T03:03:04;3.75;;;1.20;;
14118;SDS011;7138;49.246;9.100;2022-09-09T03:05:31;3.75;;;1.20;;
14118;SDS011;7138;49.246;9.100;2022-09-09T03:07:57;4.93;;;1.20;;
14118;SDS011;7138;49.246;9.100;2022-09-09T03:10:23;9.27;;;1.23;;
14118;SDS011;7138;49.246;9.100;2022-09-09T03:12:50;4.65;;;0.88;;
14118;SDS011;7138;49.246;9.100;2022-09-09T03:15:16;4.63;;;0.90;;
14118;SDS011;7138;49.246;9.100;2022-09-09T03:17:43;8.52;;;1.00;;
14118;SDS011;7138;49.246;9.100;2022-09-09T03:20:09;4.38;;;0.85;;
14118;SDS011;7138;49.246;9.100;2022-09-09T03:22:35;4.50;;;1.20;;
14118;SDS011;7138;49.246;9.100;2022-09-09T03:25:01;10.77;;;1.85;;
14118;SDS011;7138;49.246;9.100;2022-09-09T03:27:28;5.88;;;1.75;;
14118;SDS011;7138;49.246;9.100;2022-09-09T03:29:54;4.68;;;1.02;;
14118;SDS011;7138;49.246;9.100;2022-09-09T03:32:21;5.25;;;1.00;;
14118;SDS011;7138;49.246;9.100;2022-09-09T03:34:48;4.78;;;1.15;;
14118;SDS011;7138;49.246;9.100;2022-09-09T03:37:14;3.60;;;0.95;;
14118;SDS011;7138;49.246;9.100;2022-09-09T03:39:40;5.97;;;1.52;;
14118;SDS011;7138;49.246;9.100;2022-09-09T03:42:06;4.53;;;0.98;;
14118;SDS011;7138;49.246;9.100;2022-09-09T03:44:32;5.28;;;1.05;;
14118;SDS011;7138;49.246;9.100;2022-09-09T03:46:58;4.30;;;1.00;;
14118;SDS011;7138;49.246;9.100;2022-09-09T03:49:25;6.95;;;1.08;;
14118;SDS011;7138;49.246;9.100;2022-09-09T03:51:54;5.38;;;1.08;;
14118;SDS011;7138;49.246;9.100;2022-09-09T03:54:22;5.68;;;1.00;;
14118;SDS011;7138;49.246;9.100;2022-09-09T03:56:48;7.18;;;0.90;;
14118;SDS011;7138;49.246;9.100;2022-09-09T03:59:13;7.18;;;1.27;;
14118;SDS011;7138;49.246;9.100;2022-09-09T04:01:39;5.50;;;0.93;;
14118;SDS011;7138;49.246;9.100;2022-09-09T04:04:05;3.33;;;0.80;;
14118;SDS011;7138;49.246;9.100;2022-09-09T04:06:32;6.95;;;1.17;;
14118;SDS011;7138;49.246;9.100;2022-09-09T04:08:59;3.00;;;0.75;;
14118;SDS011;7138;49.246;9.100;2022-09-09T04:11:27;4.33;;;0.80;;
14118;SDS011;7138;49.246;9.100;2022-09-09T04:13:53;6.78;;;0.90;;
14118;SDS011;7138;49.246;9.100;2022-09-09T04:16:19;6.03;;;0.93;;
14118;SDS011;7138;49.246;9.100;2022-09-09T04:18:45;4.00;;;1.08;;
14118;SDS011;7138;49.246;9.100;2022-09-09T04:21:12;5.60;;;1.60;;
14118;SDS011;7138;49.246;9.100;2022-09-09T04:23:38;6.18;;;1.02;;
14118;SDS011;7138;49.246;9.100;2022-09-09T04:26:05;4.75;;;1.65;;
14118;SDS011;7138;49.246;9.100;2022-09-09T04:28:32;4.97;;;1.30;;
14118;SDS011;7138;49.246;9.100;2022-09-09T04:31:04;5.90;;;1.00;;
14118;SDS011;7138;49.246;9.100;2022-09-09T04:33:31;6.82;;;0.95;;
14118;SDS011;7138;49.246;9.100;2022-09-09T04:35:57;3.70;;;0.88;;
14118;SDS011;7138;49.246;9.100;2022-09-09T04:38:29;5.43;;;1.33;;
14118;SDS011;7138;49.246;9.100;2022-09-09T04:40:55;2.47;;;0.75;;
14118;SDS011;7138;49.246;9.100;2022-09-09T04:43:23;6.93;;;1.02;;
14118;SDS011;7138;49.246;9.100;2022-09-09T04:45:51;5.95;;;1.00;;
14118;SDS011;7138;49.246;9.100;2022-09-09T04:48:18;2.83;;;0.90;;
14118;SDS011;7138;49.246;9.100;2022-09-09T04:50:52;6.93;;;1.00;;
14118;SDS011;7138;49.246;9.100;2022-09-09T04:53:20;4.93;;;1.05;;
14118;SDS011;7138;49.246;9.100;2022-09-09T04:55:47;4.80;;;1.15;;
14118;SDS011;7138;49.246;9.100;2022-09-09T04:58:14;4.78;;;0.95;;
14118;SDS011;7138;49.246;9.100;2022-09-09T05:00:41;4.32;;;0.95;;
14118;SDS011;7138;49.246;9.100;2022-09-09T05:03:07;5.03;;;1.02;;
14118;SDS011;7138;49.246;9.100;2022-09-09T05:05:34;3.90;;;1.20;;
14118;SDS011;7138;49.246;9.100;2022-09-09T05:08:00;4.47;;;1.38;;
14118;SDS011;7138;49.246;9.100;2022-09-09T05:10:28;6.60;;;1.20;;
14118;SDS011;7138;49.246;9.100;2022-09-09T05:12:53;7.07;;;1.17;;
14118;SDS011;7138;49.246;9.100;2022-09-09T05:15:19;3.95;;;1.27;;
14118;SDS011;7138;49.246;9.100;2022-09-09T05:17:49;4.65;;;1.10;;
14118;SDS011;7138;49.246;9.100;2022-09-09T05:20:17;6.10;;;1.20;;
14118;SDS011;7138;49.246;9.100;2022-09-09T05:22:43;6.78;;;1.00;;
14118;SDS011;7138;49.246;9.100;2022-09-09T05:25:09;3.65;;;0.77;;
14118;SDS011;7138;49.246;9.100;2022-09-09T05:27:35;4.82;;;1.25;;
14118;SDS011;7138;49.246;9.100;2022-09-09T05:30:03;4.35;;;0.80;;
14118;SDS011;7138;49.246;9.100;2022-09-09T05:32:29;4.43;;;1.00;;
14118;SDS011;7138;49.246;9.100;2022-09-09T05:34:59;7.13;;;1.00;;
14118;SDS011;7138;49.246;9.100;2022-09-09T05:37:26;4.25;;;0.98;;
14118;SDS011;7138;49.246;9.100;2022-09-09T05:39:52;4.63;;;0.98;;
14118;SDS011;7138;49.246;9.100;2022-09-09T05:42:18;3.53;;;0.82;;
14118;SDS011;7138;49.246;9.100;2022-09-09T05:44:44;3.28;;;0.90;;
14118;SDS011;7138;49.246;9.100;2022-09-09T05:47:10;5.82;;;1.15;;
14118;SDS011;7138;49.246;9.100;2022-09-09T05:49:36;5.20;;;0.90;;
14118;SDS011;7138;49.246;9.100;2022-09-09T05:52:03;3.78;;;1.08;;
14118;SDS011;7138;49.246;9.100;2022-09-09T05:54:30;6.47;;;1.05;;
14118;SDS011;7138;49.246;9.100;2022-09-09T05:56:55;2.95;;;0.82;;
14118;SDS011;7138;49.246;9.100;2022-09-09T05:59:21;5.85;;;1.33;;
14118;SDS011;7138;49.246;9.100;2022-09-09T06:01:48;4.32;;;1.30;;
14118;SDS011;7138;49.246;9.100;2022-09-09T06:04:14;4.20;;;0.93;;
14118;SDS011;7138;49.246;9.100;2022-09-09T06:06:41;6.28;;;1.50;;
14118;SDS011;7138;49.246;9.100;2022-09-09T06:09:08;6.63;;;1.23;;
14118;SDS011;7138;49.246;9.100;2022-09-09T06:11:35;7.43;;;1.33;;
14118;SDS011;7138;49.246;9.100;2022-09-09T06:14:03;5.28;;;1.10;;
14118;SDS011;7138;49.246;9.100;2022-09-09T06:16:30;5.60;;;1.42;;
14118;SDS011;7138;49.246;9.100;2022-09-09T06:18:58;4.80;;;1.17;;
14118;SDS011;7138;49.246;9.100;2022-09-09T06:21:25;5.93;;;1.60;;
14118;SDS011;7138;49.246;9.100;2022-09-09T06:23:53;4.38;;;0.98;;
14118;SDS011;7138;49.246;9.100;2022-09-09T06:26:21;5.63;;;1.02;;
14118;SDS011;7138;49.246;9.100;2022-09-09T06:28:50;5.60;;;1.52;;
14118;SDS011;7138;49.246;9.100;2022-09-09T06:31:19;8.55;;;1.58;;
14118;SDS011;7138;49.246;9.100;2022-09-09T06:36:16;5.03;;;1.25;;
14118;SDS011;7138;49.246;9.100;2022-09-09T06:38:44;3.80;;;1.00;;
14118;SDS011;7138;49.246;9.100;2022-09-09T06:41:11;5.40;;;1.42;;
14118;SDS011;7138;49.246;9.100;2022-09-09T06:43:41;4.57;;;1.40;;
14118;SDS011;7138;49.246;9.100;2022-09-09T06:46:08;4.38;;;0.82;;
14118;SDS011;7138;49.246;9.100;2022-09-09T06:51:06;7.78;;;1.10;;
14118;SDS011;7138;49.246;9.100;2022-09-09T06:53:34;4.43;;;0.80;;
14118;SDS011;7138;49.246;9.100;2022-09-09T06:56:02;3.67;;;0.75;;
14118;SDS011;7138;49.246;9.100;2022-09-09T06:58:47;2.55;;;0.90;;
14118;SDS011;7138;49.246;9.100;2022-09-09T07:01:15;3.78;;;0.80;;
14118;SDS011;7138;49.246;9.100;2022-09-09T07:03:45;3.50;;;0.82;;
14118;SDS011;7138;49.246;9.100;2022-09-09T07:06:13;4.22;;;0.68;;
14118;SDS011;7138;49.246;9.100;2022-09-09T07:08:47;3.83;;;0.80;;
14118;SDS011;7138;49.246;9.100;2022-09-09T07:11:15;4.57;;;1.08;;
14118;SDS011;7138;49.246;9.100;2022-09-09T07:13:41;4.35;;;0.90;;
14118;SDS011;7138;49.246;9.100;2022-09-09T07:16:09;6.82;;;0.82;;
14118;SDS011;7138;49.246;9.100;2022-09-09T07:18:37;3.58;;;0.70;;
14118;SDS011;7138;49.246;9.100;2022-09-09T07:21:06;7.18;;;1.00;;
14118;SDS011;7138;49.246;9.100;2022-09-09T07:23:34;4.15;;;0.70;;
14118;SDS011;7138;49.246;9.100;2022-09-09T07:26:01;4.82;;;0.70;;
14118;SDS011;7138;49.246;9.100;2022-09-09T07:28:28;4.32;;;0.63;;
14118;SDS011;7138;49.246;9.100;2022-09-09T07:30:57;6.28;;;0.80;;
14118;SDS011;7138;49.246;9.100;2022-09-09T07:33:30;3.53;;;0.65;;
14118;SDS011;7138;49.246;9.100;2022-09-09T07:36:02;3.65;;;0.68;;
14118;SDS011;7138;49.246;9.100;2022-09-09T07:38:32;4.88;;;0.90;;
14118;SDS011;7138;49.246;9.100;2022-09-09T07:41:03;6.43;;;1.08;;
14118;SDS011;7138;49.246;9.100;2022-09-09T07:43:32;7.22;;;1.00;;
14118;SDS011;7138;49.246;9.100;2022-09-09T07:45:58;6.13;;;0.80;;
14118;SDS011;7138;49.246;9.100;2022-09-09T07:48:29;4.90;;;0.80;;
14118;SDS011;7138;49.246;9.100;2022-09-09T07:51:06;5.75;;;1.08;;
14118;SDS011;7138;49.246;9.100;2022-09-09T07:53:36;5.53;;;0.80;;
14118;SDS011;7138;49.246;9.100;2022-09-09T07:56:03;5.32;;;0.85;;
14118;SDS011;7138;49.246;9.100;2022-09-09T07:58:32;6.95;;;1.17;;
14118;SDS011;7138;49.246;9.100;2022-09-09T08:00:58;4.50;;;0.82;;
14118;SDS011;7138;49.246;9.100;2022-09-09T08:03:24;8.38;;;1.20;;
14118;SDS011;7138;49.246;9.100;2022-09-09T08:05:51;3.70;;;0.70;;
14118;SDS011;7138;49.246;9.100;2022-09-09T08:08:17;11.00;;;1.20;;
14118;SDS011;7138;49.246;9.100;2022-09-09T08:10:43;7.32;;;1.23;;
14118;SDS011;7138;49.246;9.100;2022-09-09T08:13:09;8.88;;;1.05;;
14118;SDS011;7138;49.246;9.100;2022-09-09T08:15:34;4.68;;;0.80;;
14118;SDS011;7138;49.246;9.100;2022-09-09T08:18:00;13.68;;;1.88;;
14118;SDS011;7138;49.246;9.100;2022-09-09T08:20:28;5.95;;;0.90;;
14118;SDS011;7138;49.246;9.100;2022-09-09T08:22:56;7.85;;;1.17;;
14118;SDS011;7138;49.246;9.100;2022-09-09T08:25:22;5.07;;;1.00;;
14118;SDS011;7138;49.246;9.100;2022-09-09T08:27:48;5.35;;;1.10;;
14118;SDS011;7138;49.246;9.100;2022-09-09T08:30:13;6.18;;;0.80;;
14118;SDS011;7138;49.246;9.100;2022-09-09T08:32:39;5.75;;;1.50;;
14118;SDS011;7138;49.246;9.100;2022-09-09T08:35:06;6.68;;;1.20;;
14118;SDS011;7138;49.246;9.100;2022-09-09T08:37:33;6.35;;;1.00;;
14118;SDS011;7138;49.246;9.100;2022-09-09T08:40:00;7.35;;;0.90;;
14118;SDS011;7138;49.246;9.100;2022-09-09T08:42:32;6.60;;;1.02;;
14118;SDS011;7138;49.246;9.100;2022-09-09T08:45:11;5.25;;;1.10;;
14118;SDS011;7138;49.246;9.100;2022-09-09T08:48:08;8.88;;;1.23;;
14118;SDS011;7138;49.246;9.100;2022-09-09T08:51:03;4.70;;;0.90;;
14118;SDS011;7138;49.246;9.100;2022-09-09T08:53:34;4.30;;;1.00;;
14118;SDS011;7138;49.246;9.100;2022-09-09T08:56:09;7.72;;;1.45;;
14118;SDS011;7138;49.246;9.100;2022-09-09T08:58:42;7.45;;;1.20;;
14118;SDS011;7138;49.246;9.100;2022-09-09T09:01:29;4.85;;;1.35;;
14118;SDS011;7138;49.246;9.100;2022-09-09T09:04:13;5.82;;;1.15;;
14118;SDS011;7138;49.246;9.100;2022-09-09T09:07:00;4.65;;;0.90;;
14118;SDS011;7138;49.246;9.100;2022-09-09T09:09:40;6.43;;;1.15;;
14118;SDS011;7138;49.246;9.100;2022-09-09T09:12:20;5.47;;;0.93;;
14118;SDS011;7138;49.246;9.100;2022-09-09T09:14:50;5.80;;;0.75;;
14118;SDS011;7138;49.246;9.100;2022-09-09T09:17:17;5.18;;;1.00;;
14118;SDS011;7138;49.246;9.100;2022-09-09T09:19:45;7.35;;;1.20;;
14118;SDS011;7138;49.246;9.100;2022-09-09T09:22:16;4.40;;;0.97;;
14118;SDS011;7138;49.246;9.100;2022-09-09T09:24:48;6.35;;;0.90;;
14118;SDS011;7138;49.246;9.100;2022-09-09T09:27:25;7.40;;;0.95;;
14118;SDS011;7138;49.246;9.100;2022-09-09T09:29:58;6.28;;;1.20;;
14118;SDS011;7138;49.246;9.100;2022-09-09T09:32:28;7.97;;;1.23;;
14118;SDS011;7138;49.246;9.100;2022-09-09T09:34:59;6.38;;;1.00;;
14118;SDS011;7138;49.246;9.100;2022-09-09T09:37:34;5.88;;;0.95;;
14118;SDS011;7138;49.246;9.100;2022-09-09T09:40:10;5.65;;;0.80;;
14118;SDS011;7138;49.246;9.100;2022-09-09T09:42:46;9.75;;;0.88;;
14118;SDS011;7138;49.246;9.100;2022-09-09T09:45:17;4.53;;;0.57;;
14118;SDS011;7138;49.246;9.100;2022-09-09T09:47:58;4.25;;;0.65;;
14118;SDS011;7138;49.246;9.100;2022-09-09T09:50:27;3.40;;;0.60;;
14118;SDS011;7138;49.246;9.100;2022-09-09T09:52:54;3.22;;;0.50;;
14118;SDS011;7138;49.246;9.100;2022-09-09T09:55:22;3.75;;;0.82;;
14118;SDS011;7138;49.246;9.100;2022-09-09T09:57:51;5.28;;;0.57;;
14118;SDS011;7138;49.246;9.100;2022-09-09T10:00:19;6.15;;;0.90;;
14118;SDS011;7138;49.246;9.100;2022-09-09T10:02:46;3.58;;;0.73;;
14118;SDS011;7138;49.246;9.100;2022-09-09T10:05:17;5.50;;;0.85;;
14118;SDS011;7138;49.246;9.100;2022-09-09T10:07:45;4.32;;;0.60;;
14118;SDS011;7138;49.246;9.100;2022-09-09T10:10:28;2.73;;;0.60;;
14118;SDS011;7138;49.246;9.100;2022-09-09T10:13:18;5.87;;;1.10;;
14118;SDS011;7138;49.246;9.100;2022-09-09T10:15:53;6.70;;;0.98;;
14118;SDS011;7138;49.246;9.100;2022-09-09T10:18:40;4.30;;;0.93;;
14118;SDS011;7138;49.246;9.100;2022-09-09T10:21:25;5.50;;;0.80;;
14118;SDS011;7138;49.246;9.100;2022-09-09T10:24:30;5.22;;;0.95;;
14118;SDS011;7138;49.246;9.100;2022-09-09T10:27:15;3.28;;;0.70;;
14118;SDS011;7138;49.246;9.100;2022-09-09T10:29:59;6.28;;;1.10;;
14118;SDS011;7138;49.246;9.100;2022-09-09T10:32:40;3.03;;;0.63;;
14118;SDS011;7138;49.246;9.100;2022-09-09T10:35:12;4.35;;;0.70;;
14118;SDS011;7138;49.246;9.100;2022-09-09T10:37:54;3.20;;;0.50;;
14118;SDS011;7138;49.246;9.100;2022-09-09T10:41:07;2.78;;;0.70;;
14118;SDS011;7138;49.246;9.100;2022-09-09T10:47:01;3.90;;;0.55;;
14118;SDS011;7138;49.246;9.100;2022-09-09T10:50:10;3.53;;;0.47;;
14118;SDS011;7138;49.246;9.100;2022-09-09T10:52:58;3.30;;;0.50;;
14118;SDS011;7138;49.246;9.100;2022-09-09T10:55:39;3.00;;;0.60;;
14118;SDS011;7138;49.246;9.100;2022-09-09T11:00:43;2.97;;;0.60;;
14118;SDS011;7138;49.246;9.100;2022-09-09T11:03:18;4.07;;;0.50;;
14118;SDS011;7138;49.246;9.100;2022-09-09T11:05:50;3.58;;;0.50;;
14118;SDS011;7138;49.246;9.100;2022-09-09T11:08:23;3.55;;;0.65;;
14118;SDS011;7138;49.246;9.100;2022-09-09T11:10:52;3.13;;;0.65;;
14118;SDS011;7138;49.246;9.100;2022-09-09T11:13:30;2.78;;;0.55;;
14118;SDS011;7138;49.246;9.100;2022-09-09T11:16:05;3.40;;;0.60;;
14118;SDS011;7138;49.246;9.100;2022-09-09T11:18:49;5.53;;;0.80;;
14118;SDS011;7138;49.246;9.100;2022-09-09T11:21:16;6.22;;;0.85;;
14118;SDS011;7138;49.246;9.100;2022-09-09T11:23:49;3.50;;;0.60;;
14118;SDS011;7138;49.246;9.100;2022-09-09T11:26:21;4.80;;;0.90;;
14118;SDS011;7138;49.246;9.100;2022-09-09T11:29:00;5.75;;;0.68;;
14118;SDS011;7138;49.246;9.100;2022-09-09T11:31:55;4.72;;;0.70;;
14118;SDS011;7138;49.246;9.100;2022-09-09T11:34:48;4.93;;;0.85;;
14118;SDS011;7138;49.246;9.100;2022-09-09T11:37:37;4.82;;;0.82;;
14118;SDS011;7138;49.246;9.100;2022-09-09T11:40:33;4.78;;;0.75;;
14118;SDS011;7138;49.246;9.100;2022-09-09T11:43:03;4.45;;;0.70;;
14118;SDS011;7138;49.246;9.100;2022-09-09T11:45:37;4.57;;;0.70;;
14118;SDS011;7138;49.246;9.100;2022-09-09T11:48:05;5.03;;;1.25;;
14118;SDS011;7138;49.246;9.100;2022-09-09T11:50:59;5.57;;;1.13;;
14118;SDS011;7138;49.246;9.100;2022-09-09T11:53:30;3.38;;;0.65;;
14118;SDS011;7138;49.246;9.100;2022-09-09T11:56:04;3.83;;;0.60;;
14118;SDS011;7138;49.246;9.100;2022-09-09T11:58:39;1.52;;;0.57;;
14118;SDS011;7138;49.246;9.100;2022-09-09T12:01:25;2.45;;;0.50;;
14118;SDS011;7138;49.246;9.100;2022-09-09T12:04:05;5.60;;;0.77;;
14118;SDS011;7138;49.246;9.100;2022-09-09T12:06:58;3.13;;;0.85;;
14118;SDS011;7138;49.246;9.100;2022-09-09T12:09:29;5.25;;;0.90;;
14118;SDS011;7138;49.246;9.100;2022-09-09T12:12:24;3.67;;;0.77;;
14118;SDS011;7138;49.246;9.100;2022-09-09T12:14:55;3.55;;;0.75;;
14118;SDS011;7138;49.246;9.100;2022-09-09T12:17:46;3.17;;;0.60;;
14118;SDS011;7138;49.246;9.100;2022-09-09T12:22:51;3.25;;;0.63;;
14118;SDS011;7138;49.246;9.100;2022-09-09T12:25:37;2.63;;;0.50;;
14118;SDS011;7138;49.246;9.100;2022-09-09T12:28:36;3.90;;;0.80;;
14118;SDS011;7138;49.246;9.100;2022-09-09T12:31:17;2.42;;;0.52;;
14118;SDS011;7138;49.246;9.100;2022-09-09T12:33:51;4.22;;;0.60;;
14118;SDS011;7138;49.246;9.100;2022-09-09T12:36:18;2.60;;;0.60;;
14118;SDS011;7138;49.246;9.100;2022-09-09T12:38:50;4.40;;;0.70;;
14118;SDS011;7138;49.246;9.100;2022-09-09T12:41:21;3.85;;;0.50;;
14118;SDS011;7138;49.246;9.100;2022-09-09T12:43:49;3.67;;;0.57;;
14118;SDS011;7138;49.246;9.100;2022-09-09T12:46:20;3.63;;;0.75;;
14118;SDS011;7138;49.246;9.100;2022-09-09T12:48:58;2.83;;;0.50;;
14118;SDS011;7138;49.246;9.100;2022-09-09T12:51:24;3.17;;;0.50;;
14118;SDS011;7138;49.246;9.100;2022-09-09T12:53:56;3.80;;;0.75;;
14118;SDS011;7138;49.246;9.100;2022-09-09T12:56:24;4.22;;;0.60;;
14118;SDS011;7138;49.246;9.100;2022-09-09T12:58:54;3.35;;;0.50;;
14118;SDS011;7138;49.246;9.100;2022-09-09T13:01:24;7.43;;;1.25;;
14118;SDS011;7138;49.246;9.100;2022-09-09T13:03:53;5.30;;;0.80;;
14118;SDS011;7138;49.246;9.100;2022-09-09T13:06:20;4.15;;;0.60;;
14118;SDS011;7138;49.246;9.100;2022-09-09T13:08:48;4.15;;;0.68;;
14118;SDS011;7138;49.246;9.100;2022-09-09T13:11:16;4.72;;;0.77;;
14118;SDS011;7138;49.246;9.100;2022-09-09T13:13:50;4.32;;;0.70;;
14118;SDS011;7138;49.246;9.100;2022-09-09T13:16:20;3.88;;;0.68;;
14118;SDS011;7138;49.246;9.100;2022-09-09T13:18:50;3.80;;;0.73;;
14118;SDS011;7138;49.246;9.100;2022-09-09T13:21:17;4.22;;;0.40;;
14118;SDS011;7138;49.246;9.100;2022-09-09T13:23:47;4.28;;;0.60;;
14118;SDS011;7138;49.246;9.100;2022-09-09T13:26:21;2.88;;;0.52;;
14118;SDS011;7138;49.246;9.100;2022-09-09T13:28:51;3.65;;;0.90;;
14118;SDS011;7138;49.246;9.100;2022-09-09T13:31:19;4.00;;;0.80;;
14118;SDS011;7138;49.246;9.100;2022-09-09T13:33:48;4.13;;;0.68;;
14118;SDS011;7138;49.246;9.100;2022-09-09T13:36:14;3.03;;;0.95;;
14118;SDS011;7138;49.246;9.100;2022-09-09T13:38:40;3.83;;;0.90;;
14118;SDS011;7138;49.246;9.100;2022-09-09T13:41:21;3.58;;;0.70;;
14118;SDS011;7138;49.246;9.100;2022-09-09T13:46:25;4.45;;;0.60;;
14118;SDS011;7138;49.246;9.100;2022-09-09T13:48:57;5.22;;;0.82;;
14118;SDS011;7138;49.246;9.100;2022-09-09T13:51:30;4.88;;;1.10;;
14118;SDS011;7138;49.246;9.100;2022-09-09T13:54:00;5.28;;;0.80;;
14118;SDS011;7138;49.246;9.100;2022-09-09T13:56:27;4.53;;;0.63;;
14118;SDS011;7138;49.246;9.100;2022-09-09T13:58:54;4.50;;;0.98;;
14118;SDS011;7138;49.246;9.100;2022-09-09T14:01:19;3.55;;;0.93;;
14118;SDS011;7138;49.246;9.100;2022-09-09T14:03:45;3.58;;;0.70;;
14118;SDS011;7138;49.246;9.100;2022-09-09T14:06:11;4.13;;;0.90;;
14118;SDS011;7138;49.246;9.100;2022-09-09T14:08:38;3.67;;;0.60;;
14118;SDS011;7138;49.246;9.100;2022-09-09T14:11:05;3.40;;;0.80;;
14118;SDS011;7138;49.246;9.100;2022-09-09T14:13:37;3.53;;;0.60;;
14118;SDS011;7138;49.246;9.100;2022-09-09T14:16:03;2.42;;;0.70;;
14118;SDS011;7138;49.246;9.100;2022-09-09T14:18:29;3.53;;;0.60;;
14118;SDS011;7138;49.246;9.100;2022-09-09T14:20:55;3.38;;;0.60;;
14118;SDS011;7138;49.246;9.100;2022-09-09T14:23:22;3.80;;;0.63;;
14118;SDS011;7138;49.246;9.100;2022-09-09T14:25:49;3.47;;;0.50;;
14118;SDS011;7138;49.246;9.100;2022-09-09T14:28:16;5.00;;;0.80;;
14118;SDS011;7138;49.246;9.100;2022-09-09T14:30:43;1.77;;;0.45;;
14118;SDS011;7138;49.246;9.100;2022-09-09T14:33:11;2.67;;;0.50;;
14118;SDS011;7138;49.246;9.100;2022-09-09T14:35:40;5.15;;;0.73;;
14118;SDS011;7138;49.246;9.100;2022-09-09T14:38:07;3.10;;;0.32;;
14118;SDS011;7138;49.246;9.100;2022-09-09T14:40:34;2.28;;;0.40;;
14118;SDS011;7138;49.246;9.100;2022-09-09T14:43:01;2.35;;;0.50;;
14118;SDS011;7138;49.246;9.100;2022-09-09T14:45:27;7.43;;;0.60;;
14118;SDS011;7138;49.246;9.100;2022-09-09T14:47:55;2.03;;;0.38;;
14118;SDS011;7138;49.246;9.100;2022-09-09T14:50:22;2.78;;;0.30;;
14118;SDS011;7138;49.246;9.100;2022-09-09T14:52:49;2.67;;;0.40;;
14118;SDS011;7138;49.246;9.100;2022-09-09T14:55:15;4.22;;;0.40;;
14118;SDS011;7138;49.246;9.100;2022-09-09T14:57:42;1.98;;;0.40;;
14118;SDS011;7138;49.246;9.100;2022-09-09T15:00:09;4.55;;;0.35;;
14118;SDS011;7138;49.246;9.100;2022-09-09T15:02:36;1.98;;;0.52;;
14118;SDS011;7138;49.246;9.100;2022-09-09T15:05:04;3.60;;;0.57;;
14118;SDS011;7138;49.246;9.100;2022-09-09T15:07:31;2.88;;;0.38;;
14118;SDS011;7138;49.246;9.100;2022-09-09T15:09:57;2.25;;;0.30;;
14118;SDS011;7138;49.246;9.100;2022-09-09T15:12:23;1.38;;;0.40;;
14118;SDS011;7138;49.246;9.100;2022-09-09T15:14:49;1.75;;;0.30;;
14118;SDS011;7138;49.246;9.100;2022-09-09T15:17:15;3.70;;;0.57;;
14118;SDS011;7138;49.246;9.100;2022-09-09T15:19:41;1.98;;;0.40;;
14118;SDS011;7138;49.246;9.100;2022-09-09T15:22:09;3.95;;;0.45;;
14118;SDS011;7138;49.246;9.100;2022-09-09T15:24:35;3.28;;;0.60;;
14118;SDS011;7138;49.246;9.100;2022-09-09T15:27:01;3.20;;;0.50;;
14118;SDS011;7138;49.246;9.100;2022-09-09T15:29:27;4.13;;;0.50;;
14118;SDS011;7138;49.246;9.100;2022-09-09T15:31:53;3.35;;;0.50;;
14118;SDS011;7138;49.246;9.100;2022-09-09T15:34:20;3.22;;;0.40;;
14118;SDS011;7138;49.246;9.100;2022-09-09T15:36:47;2.85;;;0.40;;
14118;SDS011;7138;49.246;9.100;2022-09-09T15:39:14;2.20;;;0.57;;
14118;SDS011;7138;49.246;9.100;2022-09-09T15:41:42;3.40;;;0.50;;
14118;SDS011;7138;49.246;9.100;2022-09-09T15:44:10;3.10;;;0.63;;
14118;SDS011;7138;49.246;9.100;2022-09-09T15:46:37;4.00;;;0.57;;
14118;SDS011;7138;49.246;9.100;2022-09-09T15:49:06;2.33;;;0.50;;